createdAt,value
2023-05-19T00:01:16.681Z,3.75
2023-05-19T00:03:52.757Z,3.50
2023-05-19T00:06:27.345Z,3.40
2023-05-19T00:09:07.801Z,3.70
2023-05-19T00:11:39.104Z,3.77
2023-05-19T00:14:07.947Z,3.38
2023-05-19T00:16:35.044Z,4.18
2023-05-19T00:19:03.666Z,3.75
2023-05-19T00:21:31.292Z,4.60
2023-05-19T00:23:58.720Z,3.97
2023-05-19T00:26:27.078Z,3.85
2023-05-19T00:29:04.356Z,3.90
2023-05-19T00:31:31.768Z,4.28
2023-05-19T00:33:58.360Z,3.88
2023-05-19T00:36:26.034Z,3.92
2023-05-19T00:38:52.867Z,4.35
2023-05-19T00:41:19.597Z,4.20
2023-05-19T00:43:46.247Z,4.32
2023-05-19T00:46:12.937Z,3.88
2023-05-19T00:48:39.613Z,4.30
2023-05-19T00:51:06.676Z,4.32
2023-05-19T00:53:34.736Z,4.57
2023-05-19T00:56:03.069Z,4.18
2023-05-19T00:58:31.203Z,4.70
2023-05-19T01:01:03.852Z,4.30
2023-05-19T01:03:36.274Z,4.57
2023-05-19T01:06:07.159Z,4.20
2023-05-19T01:08:35.722Z,4.22
2023-05-19T01:11:02.868Z,4.00
2023-05-19T01:13:30.527Z,3.70
2023-05-19T01:16:09.176Z,4.13
2023-05-19T01:18:40.093Z,4.68
2023-05-19T01:21:24.858Z,3.88
2023-05-19T01:23:57.141Z,4.57
2023-05-19T01:26:54.921Z,5.28
2023-05-19T01:29:41.038Z,4.20
2023-05-19T01:32:09.334Z,5.28
2023-05-19T01:34:44.201Z,4.70
2023-05-19T01:37:13.331Z,4.60
2023-05-19T01:39:40.370Z,5.65
2023-05-19T01:42:07.977Z,4.47
2023-05-19T01:44:35.730Z,4.30
2023-05-19T01:47:02.575Z,4.90
2023-05-19T01:49:29.359Z,4.43
2023-05-19T01:51:56.297Z,4.53
2023-05-19T01:54:22.981Z,5.15
2023-05-19T01:57:15.070Z,5.05
2023-05-19T02:00:15.815Z,4.47
2023-05-19T02:02:55.385Z,3.90
2023-05-19T02:05:29.560Z,4.38
2023-05-19T02:08:17.214Z,4.15
2023-05-19T02:10:50.073Z,4.82
2023-05-19T02:13:20.129Z,4.60
2023-05-19T02:15:48.510Z,5.10
2023-05-19T02:18:17.864Z,4.75
2023-05-19T02:20:44.493Z,4.43
2023-05-19T02:23:11.063Z,4.13
2023-05-19T02:25:37.592Z,4.82
2023-05-19T02:28:06.751Z,5.22
2023-05-19T02:30:33.643Z,4.65
2023-05-19T02:33:00.647Z,4.90
2023-05-19T02:35:27.931Z,4.50
2023-05-19T02:37:54.477Z,4.47
2023-05-19T02:40:22.262Z,4.95
2023-05-19T02:42:49.435Z,4.55
2023-05-19T02:45:16.290Z,5.45
2023-05-19T02:47:42.858Z,4.40
2023-05-19T02:50:09.554Z,4.85
2023-05-19T02:52:36.047Z,4.35
2023-05-19T02:55:02.552Z,4.57
2023-05-19T02:57:30.051Z,4.38
2023-05-19T02:59:56.532Z,4.32
2023-05-19T03:02:23.028Z,4.30
2023-05-19T03:04:49.881Z,4.10
2023-05-19T03:07:16.474Z,4.68
2023-05-19T03:09:43.001Z,4.15
2023-05-19T03:12:09.602Z,4.03
2023-05-19T03:14:39.110Z,3.92
2023-05-19T03:17:08.094Z,4.32
2023-05-19T03:19:34.716Z,3.97
2023-05-19T03:22:01.244Z,3.80
2023-05-19T03:24:28.258Z,3.80
2023-05-19T03:26:55.668Z,3.63
2023-05-19T03:29:22.164Z,5.35
2023-05-19T03:31:48.775Z,4.63
2023-05-19T03:34:16.510Z,4.28
2023-05-19T03:36:44.986Z,3.88
2023-05-19T03:39:15.471Z,3.92
2023-05-19T03:41:42.361Z,4.82
2023-05-19T03:44:08.881Z,4.82
2023-05-19T03:46:35.420Z,4.80
2023-05-19T03:49:07.609Z,4.78
2023-05-19T03:51:54.105Z,4.10
2023-05-19T03:54:31.686Z,4.10
2023-05-19T03:56:58.329Z,4.10
2023-05-19T03:59:24.911Z,4.57
2023-05-19T04:01:51.654Z,4.25
2023-05-19T04:04:18.265Z,4.70
2023-05-19T04:06:45.648Z,3.92
2023-05-19T04:09:14.169Z,4.00
2023-05-19T04:11:41.980Z,4.43
2023-05-19T04:14:09.180Z,3.92
2023-05-19T04:16:36.767Z,4.60
2023-05-19T04:19:03.611Z,4.10
2023-05-19T04:21:30.143Z,3.92
2023-05-19T04:23:59.170Z,4.60
2023-05-19T04:26:26.889Z,3.70
2023-05-19T04:28:53.941Z,4.00
2023-05-19T04:31:21.601Z,4.65
2023-05-19T04:33:49.647Z,4.20
2023-05-19T04:36:18.393Z,4.65
2023-05-19T04:38:46.529Z,4.30
2023-05-19T04:41:13.937Z,4.63
2023-05-19T04:43:44.430Z,5.03
2023-05-19T04:46:13.879Z,4.55
2023-05-19T04:48:42.714Z,4.22
2023-05-19T04:51:09.363Z,4.85
2023-05-19T04:53:36.516Z,5.00
2023-05-19T04:56:09.627Z,4.32
2023-05-19T04:58:38.738Z,4.43
2023-05-19T05:01:06.723Z,4.63
2023-05-19T05:03:34.589Z,4.38
2023-05-19T05:06:01.347Z,4.45
2023-05-19T05:08:28.241Z,4.55
2023-05-19T05:10:55.351Z,4.95
2023-05-19T05:13:24.037Z,4.90
2023-05-19T05:15:52.956Z,4.88
2023-05-19T05:18:22.328Z,4.57
2023-05-19T05:20:49.454Z,5.40
2023-05-19T05:23:16.709Z,4.85
2023-05-19T05:25:47.226Z,4.15
2023-05-19T05:28:15.020Z,5.00
2023-05-19T05:30:43.589Z,4.97
2023-05-19T05:33:10.613Z,4.95
2023-05-19T05:35:39.208Z,5.20
2023-05-19T05:38:08.103Z,5.15
2023-05-19T05:40:36.250Z,4.93
2023-05-19T05:43:04.121Z,4.72
2023-05-19T05:45:34.769Z,4.30
2023-05-19T05:48:02.009Z,5.28
2023-05-19T05:50:30.685Z,4.55
2023-05-19T05:53:01.141Z,4.53
2023-05-19T05:55:28.065Z,5.90
2023-05-19T05:57:56.911Z,4.85
2023-05-19T06:00:23.648Z,5.15
2023-05-19T06:02:52.812Z,5.22
2023-05-19T06:05:20.293Z,5.22
2023-05-19T06:07:48.013Z,5.28
2023-05-19T06:10:19.809Z,5.00
2023-05-19T06:12:47.207Z,5.88
2023-05-19T06:15:14.875Z,4.88
2023-05-19T06:18:01.143Z,4.60
2023-05-19T06:20:27.956Z,5.22
2023-05-19T06:22:55.762Z,5.50
2023-05-19T06:25:24.707Z,4.90
2023-05-19T06:27:51.453Z,4.97
2023-05-19T06:30:19.534Z,4.93
2023-05-19T06:33:01.014Z,4.82
2023-05-19T06:35:27.861Z,5.53
2023-05-19T06:37:56.233Z,4.85
2023-05-19T06:40:23.413Z,5.15
2023-05-19T06:42:49.961Z,5.55
2023-05-19T06:45:25.199Z,5.70
2023-05-19T06:47:51.764Z,5.38
2023-05-19T06:50:19.117Z,5.40
2023-05-19T06:52:48.743Z,5.72
2023-05-19T06:55:15.880Z,6.10
2023-05-19T06:57:43.085Z,5.35
2023-05-19T07:00:15.260Z,5.78
2023-05-19T07:02:47.084Z,5.90
2023-05-19T07:05:14.126Z,5.93
2023-05-19T07:07:41.756Z,5.35
2023-05-19T07:10:12.837Z,6.93
2023-05-19T07:12:39.402Z,6.32
2023-05-19T07:15:07.193Z,5.57
2023-05-19T07:17:34.809Z,5.95
2023-05-19T07:20:01.645Z,5.95
2023-05-19T07:22:28.389Z,6.28
2023-05-19T07:24:57.053Z,6.28
2023-05-19T07:27:23.555Z,5.40
2023-05-19T07:29:49.986Z,6.00
2023-05-19T07:32:16.533Z,5.50
2023-05-19T07:34:43.172Z,5.68
2023-05-19T07:37:09.774Z,5.57
2023-05-19T07:39:36.303Z,5.15
2023-05-19T07:42:03.237Z,6.40
2023-05-19T07:44:31.409Z,5.97
2023-05-19T07:46:57.918Z,5.72
2023-05-19T07:49:24.438Z,5.20
2023-05-19T07:51:50.939Z,5.18
2023-05-19T07:54:17.419Z,5.10
2023-05-19T07:56:44.021Z,6.05
2023-05-19T07:59:10.579Z,4.68
2023-05-19T08:01:37.069Z,5.22
2023-05-19T08:04:03.774Z,4.97
2023-05-19T08:06:31.713Z,4.03
2023-05-19T08:08:58.267Z,5.15
2023-05-19T08:11:24.736Z,4.88
2023-05-19T08:13:51.668Z,6.10
2023-05-19T08:16:18.359Z,5.32
2023-05-19T08:18:44.927Z,5.40
2023-05-19T08:21:11.781Z,4.75
2023-05-19T08:23:38.720Z,4.45
2023-05-19T08:26:05.560Z,4.82
2023-05-19T08:28:32.108Z,5.10
2023-05-19T08:30:58.677Z,4.63
2023-05-19T08:33:25.328Z,4.70
2023-05-19T08:35:51.796Z,5.60
2023-05-19T08:38:18.302Z,5.20
2023-05-19T08:40:47.273Z,4.47
2023-05-19T08:43:14.028Z,4.57
2023-05-19T08:45:46.691Z,6.07
2023-05-19T08:48:14.830Z,4.20
2023-05-19T08:50:50.822Z,6.20
2023-05-19T08:53:33.823Z,4.80
2023-05-19T08:56:11.266Z,4.72
2023-05-19T08:58:40.499Z,4.70
2023-05-19T09:01:08.507Z,4.70
2023-05-19T09:03:39.264Z,4.13
2023-05-19T09:06:08.635Z,4.03
2023-05-19T09:08:36.125Z,5.05
2023-05-19T09:11:02.678Z,4.50
2023-05-19T09:13:29.205Z,4.63
2023-05-19T09:15:59.592Z,4.53
2023-05-19T09:18:26.878Z,5.10
2023-05-19T09:21:02.723Z,3.83
2023-05-19T09:23:32.572Z,4.53
2023-05-19T09:26:02.263Z,4.93
2023-05-19T09:28:33.400Z,5.18
2023-05-19T09:33:28.774Z,4.78
2023-05-19T09:35:58.768Z,5.25
2023-05-19T09:38:29.348Z,5.72
2023-05-19T09:40:57.916Z,5.07
2023-05-19T09:43:27.249Z,5.47
2023-05-19T09:46:07.515Z,4.90
2023-05-19T09:48:36.438Z,5.00
2023-05-19T09:51:06.238Z,5.30
2023-05-19T09:53:34.330Z,5.35
2023-05-19T09:56:02.189Z,5.32
2023-05-19T09:58:35.068Z,4.80
2023-05-19T10:01:02.422Z,4.97
2023-05-19T10:03:30.974Z,4.55
2023-05-19T10:05:57.540Z,5.50
2023-05-19T10:08:26.555Z,5.05
2023-05-19T10:10:53.621Z,5.93
2023-05-19T10:13:21.855Z,5.10
2023-05-19T10:15:58.284Z,5.38
2023-05-19T10:18:27.623Z,5.18
2023-05-19T10:20:54.355Z,5.70
2023-05-19T10:23:21.091Z,5.28
2023-05-19T10:25:49.267Z,5.72
2023-05-19T10:28:21.096Z,5.50
2023-05-19T10:30:51.212Z,5.70
2023-05-19T10:33:20.946Z,6.20
2023-05-19T10:36:15.768Z,5.88
2023-05-19T10:38:50.009Z,5.57
2023-05-19T10:41:55.146Z,6.38
2023-05-19T10:44:40.607Z,5.72
2023-05-19T10:47:08.692Z,6.18
2023-05-19T10:49:36.599Z,5.70
2023-05-19T10:52:03.628Z,6.88
2023-05-19T10:54:46.132Z,6.13
2023-05-19T10:57:17.066Z,6.15
2023-05-19T10:59:47.155Z,6.00
2023-05-19T11:02:40.227Z,6.20
2023-05-19T11:05:14.897Z,5.47
2023-05-19T11:07:44.223Z,5.57
2023-05-19T11:10:11.476Z,5.97
2023-05-19T11:12:45.793Z,5.18
2023-05-19T11:15:14.179Z,5.60
2023-05-19T11:17:45.274Z,6.75
2023-05-19T11:20:22.780Z,7.25
2023-05-19T11:23:09.476Z,6.32
2023-05-19T11:25:47.617Z,7.13
2023-05-19T11:28:19.658Z,8.80
2023-05-19T11:30:50.635Z,6.85
2023-05-19T11:33:20.622Z,6.95
2023-05-19T11:35:49.554Z,6.82
2023-05-19T11:38:18.585Z,6.93
2023-05-19T11:40:45.268Z,6.53
2023-05-19T11:43:11.749Z,6.63
2023-05-19T11:45:38.464Z,7.25
2023-05-19T11:48:05.991Z,7.10
2023-05-19T11:50:32.756Z,7.43
2023-05-19T11:53:00.885Z,6.45
2023-05-19T11:55:27.974Z,6.20
2023-05-19T11:58:04.943Z,6.38
2023-05-19T12:00:39.535Z,6.97
2023-05-19T12:03:07.392Z,6.15
2023-05-19T12:05:40.911Z,5.93
2023-05-19T12:08:09.920Z,6.93
2023-05-19T12:10:36.918Z,6.07
2023-05-19T12:13:03.645Z,6.57
2023-05-19T12:15:32.054Z,6.47
2023-05-19T12:18:00.472Z,6.45
2023-05-19T12:20:28.523Z,5.78
2023-05-19T12:22:56.387Z,6.68
2023-05-19T12:25:23.922Z,6.13
2023-05-19T12:27:52.748Z,6.15
2023-05-19T12:30:26.414Z,6.65
2023-05-19T12:32:54.194Z,6.93
2023-05-19T12:35:23.241Z,6.85
2023-05-19T12:37:50.560Z,6.68
2023-05-19T12:40:17.495Z,5.88
2023-05-19T12:42:48.747Z,6.03
2023-05-19T12:47:41.888Z,6.47
2023-05-19T12:50:10.006Z,6.25
2023-05-19T12:52:47.757Z,6.35
2023-05-19T12:55:16.344Z,6.70
2023-05-19T12:57:44.671Z,6.85
2023-05-19T13:00:22.822Z,6.43
2023-05-19T13:03:05.421Z,5.25
2023-05-19T13:05:35.091Z,5.88
2023-05-19T13:08:05.459Z,6.18
2023-05-19T13:10:33.465Z,5.77
2023-05-19T13:13:00.893Z,5.78
2023-05-19T13:15:34.236Z,6.35
2023-05-19T13:18:03.732Z,5.35
2023-05-19T13:20:30.860Z,5.95
2023-05-19T13:22:57.824Z,5.85
2023-05-19T13:25:24.408Z,4.88
2023-05-19T13:27:51.073Z,5.80
2023-05-19T13:30:18.737Z,6.43
2023-05-19T13:32:46.107Z,5.85
2023-05-19T13:35:14.586Z,4.35
2023-05-19T13:37:44.352Z,4.93
2023-05-19T13:40:11.589Z,4.68
2023-05-19T13:42:38.127Z,5.05
2023-05-19T13:45:05.342Z,5.20
2023-05-19T13:47:31.894Z,5.90
2023-05-19T13:49:58.635Z,7.95
2023-05-19T13:52:28.224Z,6.85
2023-05-19T13:54:56.751Z,8.77
2023-05-19T13:57:24.271Z,5.30
2023-05-19T14:00:01.801Z,8.85
2023-05-19T14:02:38.693Z,5.00
2023-05-19T14:05:06.354Z,5.43
2023-05-19T14:07:34.685Z,5.25
2023-05-19T14:10:02.443Z,4.93
2023-05-19T14:12:38.027Z,5.05
2023-05-19T14:15:14.215Z,4.45
2023-05-19T14:17:40.843Z,4.70
2023-05-19T14:20:08.445Z,5.00
2023-05-19T14:22:35.218Z,5.38
2023-05-19T14:25:02.168Z,5.40
2023-05-19T14:27:28.650Z,5.57
2023-05-19T14:29:55.250Z,6.18
2023-05-19T14:32:22.165Z,5.05
2023-05-19T14:34:52.685Z,4.72
2023-05-19T14:37:20.095Z,5.32
2023-05-19T14:39:46.674Z,4.65
2023-05-19T14:42:13.153Z,5.40
2023-05-19T14:44:39.613Z,4.63
2023-05-19T14:47:07.379Z,4.53
2023-05-19T14:49:34.006Z,4.75
2023-05-19T14:52:00.751Z,4.15
2023-05-19T14:54:27.193Z,5.20
2023-05-19T14:56:53.675Z,4.68
2023-05-19T14:59:21.548Z,4.68
2023-05-19T15:01:48.130Z,4.78
2023-05-19T15:04:14.784Z,5.45
2023-05-19T15:06:41.594Z,5.13
2023-05-19T15:09:08.226Z,4.97
2023-05-19T15:11:34.743Z,4.45
2023-05-19T15:14:01.248Z,4.80
2023-05-19T15:16:27.789Z,4.95
2023-05-19T15:18:54.839Z,4.50
2023-05-19T15:21:21.714Z,4.65
2023-05-19T15:23:48.376Z,4.57
2023-05-19T15:26:14.924Z,4.95
2023-05-19T15:28:41.629Z,5.05
2023-05-19T15:31:08.276Z,4.78
2023-05-19T15:33:34.887Z,4.80
2023-05-19T15:36:01.420Z,4.63
2023-05-19T15:38:29.830Z,4.30
2023-05-19T15:40:56.641Z,5.07
2023-05-19T15:43:23.265Z,4.72
2023-05-19T15:45:52.231Z,4.95
2023-05-19T15:48:19.117Z,4.43
2023-05-19T15:50:45.838Z,3.90
2023-05-19T15:53:12.416Z,4.30
2023-05-19T15:55:38.903Z,4.35
2023-05-19T15:58:05.455Z,4.03
2023-05-19T16:00:32.099Z,4.53
2023-05-19T16:02:58.837Z,4.00
2023-05-19T16:05:25.561Z,4.53
2023-05-19T16:07:52.017Z,3.78
2023-05-19T16:10:18.504Z,5.60
2023-05-19T16:12:45.011Z,4.50
2023-05-19T16:15:11.586Z,5.78
2023-05-19T16:17:38.204Z,4.90
2023-05-19T16:20:05.313Z,4.55
2023-05-19T16:22:32.196Z,4.07
2023-05-19T16:24:58.786Z,6.00
2023-05-19T16:27:25.415Z,5.82
2023-05-19T16:29:51.916Z,4.78
2023-05-19T16:32:18.616Z,5.05
2023-05-19T16:34:45.101Z,3.90
2023-05-19T16:37:11.601Z,3.70
2023-05-19T16:39:38.082Z,4.15
2023-05-19T16:42:04.954Z,3.60
2023-05-19T16:44:31.446Z,3.63
2023-05-19T16:46:57.962Z,9.38
2023-05-19T16:49:24.437Z,7.68
2023-05-19T16:51:52.874Z,6.50
2023-05-19T16:54:19.642Z,7.75
2023-05-19T16:56:46.217Z,5.57
2023-05-19T16:59:12.766Z,5.13
2023-05-19T17:01:39.343Z,5.03
2023-05-19T17:04:05.964Z,3.65
2023-05-19T17:06:32.443Z,3.50
2023-05-19T17:08:58.969Z,4.40
2023-05-19T17:11:26.715Z,3.28
2023-05-19T17:13:53.211Z,4.22
2023-05-19T17:16:19.713Z,4.40
2023-05-19T17:18:47.923Z,3.75
2023-05-19T17:21:14.556Z,4.15
2023-05-19T17:23:41.521Z,4.13
2023-05-19T17:26:07.999Z,4.72
2023-05-19T17:28:34.692Z,5.00
2023-05-19T17:31:01.416Z,3.95
2023-05-19T17:33:27.932Z,4.20
2023-05-19T17:35:54.478Z,5.22
2023-05-19T17:38:20.953Z,4.10
2023-05-19T17:40:47.506Z,3.55
2023-05-19T17:43:15.035Z,3.78
2023-05-19T17:45:41.526Z,3.20
2023-05-19T17:48:08.060Z,3.65
2023-05-19T17:50:34.798Z,3.83
2023-05-19T17:53:01.692Z,3.20
2023-05-19T17:55:30.269Z,3.50
2023-05-19T17:57:57.522Z,11.02
2023-05-19T18:00:25.248Z,3.25
2023-05-19T18:02:52.511Z,3.15
2023-05-19T18:05:19.576Z,3.20
2023-05-19T18:07:46.301Z,3.13
2023-05-19T18:10:15.421Z,3.40
2023-05-19T18:12:42.082Z,3.20
2023-05-19T18:15:08.860Z,3.50
2023-05-19T18:17:35.466Z,4.47
2023-05-19T18:20:02.373Z,3.95
2023-05-19T18:22:28.930Z,3.13
2023-05-19T18:24:56.183Z,3.20
2023-05-19T18:27:22.693Z,2.97
2023-05-19T18:29:49.141Z,4.05
2023-05-19T18:32:17.620Z,3.55
2023-05-19T18:34:44.197Z,3.92
2023-05-19T18:37:10.847Z,3.50
2023-05-19T18:39:37.426Z,3.58
2023-05-19T18:42:04.125Z,3.08
2023-05-19T18:44:30.612Z,3.25
2023-05-19T18:46:57.071Z,3.25
2023-05-19T18:49:24.889Z,4.18
2023-05-19T18:51:51.751Z,3.67
2023-05-19T18:54:18.327Z,3.50
2023-05-19T18:56:44.834Z,3.55
2023-05-19T18:59:11.440Z,3.30
2023-05-19T19:01:38.077Z,3.35
2023-05-19T19:04:04.795Z,3.05
2023-05-19T19:06:31.766Z,3.78
2023-05-19T19:08:58.194Z,2.83
2023-05-19T19:11:24.664Z,2.88
2023-05-19T19:13:51.418Z,2.95
2023-05-19T19:16:18.137Z,3.17
2023-05-19T19:18:44.737Z,3.13
2023-05-19T19:21:11.380Z,3.97
2023-05-19T19:23:37.990Z,2.83
2023-05-19T19:26:04.500Z,3.33
2023-05-19T19:28:31.078Z,2.88
2023-05-19T19:30:57.583Z,3.40
2023-05-19T19:33:24.724Z,3.35
2023-05-19T19:35:51.482Z,3.17
2023-05-19T19:38:18.000Z,3.55
2023-05-19T19:40:44.465Z,3.20
2023-05-19T19:43:11.255Z,3.40
2023-05-19T19:45:39.513Z,3.70
2023-05-19T19:48:07.152Z,3.33
2023-05-19T19:50:34.509Z,3.50
2023-05-19T19:53:01.371Z,3.10
2023-05-19T19:55:28.865Z,3.28
2023-05-19T19:57:55.384Z,3.63
2023-05-19T20:00:21.885Z,2.90
2023-05-19T20:03:03.451Z,3.42
2023-05-19T20:05:31.347Z,4.10
2023-05-19T20:07:57.830Z,4.40
2023-05-19T20:10:24.359Z,3.78
2023-05-19T20:12:51.171Z,3.67
2023-05-19T20:15:17.807Z,3.80
2023-05-19T20:17:44.336Z,3.45
2023-05-19T20:20:12.288Z,3.60
2023-05-19T20:22:39.161Z,3.70
2023-05-19T20:25:06.173Z,3.50
2023-05-19T20:27:32.662Z,3.50
2023-05-19T20:29:59.171Z,3.80
2023-05-19T20:32:25.865Z,3.78
2023-05-19T20:34:52.426Z,4.07
2023-05-19T20:37:18.914Z,3.53
2023-05-19T20:39:45.379Z,3.25
2023-05-19T20:42:12.285Z,3.80
2023-05-19T20:44:38.832Z,3.53
2023-05-19T20:47:08.091Z,3.30
2023-05-19T20:49:34.930Z,3.38
2023-05-19T20:52:01.531Z,3.30
2023-05-19T20:54:28.031Z,3.08
2023-05-19T20:56:54.572Z,3.60
2023-05-19T20:59:21.162Z,3.70
2023-05-19T21:01:48.031Z,3.65
2023-05-19T21:04:14.664Z,3.60
2023-05-19T21:06:41.295Z,3.80
2023-05-19T21:09:07.781Z,3.30
2023-05-19T21:11:34.346Z,3.33
2023-05-19T21:14:04.081Z,2.97
2023-05-19T21:16:31.338Z,3.05
2023-05-19T21:18:58.074Z,3.40
2023-05-19T21:21:24.682Z,3.45
2023-05-19T21:23:51.175Z,2.92
2023-05-19T21:26:17.884Z,3.20
2023-05-19T21:28:44.332Z,3.30
2023-05-19T21:31:10.968Z,3.08
2023-05-19T21:33:37.560Z,3.15
2023-05-19T21:36:04.236Z,3.20
2023-05-19T21:38:30.845Z,3.13
2023-05-19T21:40:57.299Z,3.85
2023-05-19T21:43:23.756Z,3.35
2023-05-19T21:45:50.206Z,3.45
2023-05-19T21:48:16.793Z,3.30
2023-05-19T21:50:43.359Z,3.15
2023-05-19T21:53:09.953Z,3.50
2023-05-19T21:55:36.481Z,3.40
2023-05-19T21:58:03.058Z,3.05
2023-05-19T22:00:29.621Z,3.22
2023-05-19T22:02:56.290Z,3.28
2023-05-19T22:05:22.896Z,3.22
2023-05-19T22:07:49.405Z,3.70
2023-05-19T22:10:15.945Z,3.53
2023-05-19T22:12:42.449Z,3.40
2023-05-19T22:15:09.683Z,3.92
2023-05-19T22:17:36.227Z,3.47
2023-05-19T22:20:02.732Z,3.47
2023-05-19T22:22:29.163Z,3.92
2023-05-19T22:24:55.653Z,3.63
2023-05-19T22:27:22.104Z,4.00
2023-05-19T22:29:48.599Z,3.45
2023-05-19T22:32:17.937Z,3.40
2023-05-19T22:34:44.734Z,3.40
2023-05-19T22:37:11.662Z,3.50
2023-05-19T22:39:39.008Z,3.40
2023-05-19T22:42:05.873Z,4.05
2023-05-19T22:44:32.336Z,4.20
2023-05-19T22:46:58.792Z,4.32
2023-05-19T22:49:26.146Z,4.18
2023-05-19T22:51:52.752Z,3.70
2023-05-19T22:54:19.270Z,3.67
2023-05-19T22:56:48.417Z,3.38
2023-05-19T22:59:17.611Z,3.58
2023-05-19T23:01:46.411Z,3.55
2023-05-19T23:04:13.485Z,4.03
2023-05-19T23:06:40.012Z,4.15
2023-05-19T23:09:06.613Z,4.00
2023-05-19T23:11:33.937Z,3.50
2023-05-19T23:14:00.522Z,4.18
2023-05-19T23:16:26.993Z,4.68
2023-05-19T23:18:53.529Z,4.70
2023-05-19T23:21:20.047Z,4.10
2023-05-19T23:23:46.529Z,3.53
2023-05-19T23:26:15.885Z,3.60
2023-05-19T23:28:43.295Z,4.15
2023-05-19T23:31:09.940Z,3.90
2023-05-19T23:33:36.465Z,3.88
2023-05-19T23:36:07.801Z,3.65
2023-05-19T23:38:35.314Z,4.15
2023-05-19T23:41:02.258Z,3.75
2023-05-19T23:43:28.889Z,3.67
2023-05-19T23:45:55.494Z,3.42
2023-05-19T23:48:21.984Z,4.07
2023-05-19T23:50:48.490Z,3.88
2023-05-19T23:53:15.069Z,4.05
2023-05-19T23:55:42.173Z,3.45
2023-05-19T23:58:08.675Z,3.40
